sensor_id;sensor_type;location;lat;lon;timestamp;P1;durP1;ratioP1;P2;durP2;ratioP2
19778;SDS011;10049;59.306;18.090;2022-11-21T00:00:28;2.63;;;1.47;;
19778;SDS011;10049;59.306;18.090;2022-11-21T00:02:56;1.30;;;1.10;;
19778;SDS011;10049;59.306;18.090;2022-11-21T00:05:24;2.60;;;1.63;;
19778;SDS011;10049;59.306;18.090;2022-11-21T00:07:51;3.97;;;1.57;;
19778;SDS011;10049;59.306;18.090;2022-11-21T00:10:20;4.60;;;2.53;;
19778;SDS011;10049;59.306;18.090;2022-11-21T00:12:51;4.10;;;2.30;;
19778;SDS011;10049;59.306;18.090;2022-11-21T00:15:19;3.60;;;2.23;;
19778;SDS011;10049;59.306;18.090;2022-11-21T00:17:46;3.57;;;2.40;;
19778;SDS011;10049;59.306;18.090;2022-11-21T00:20:14;5.20;;;2.63;;
19778;SDS011;10049;59.306;18.090;2022-11-21T00:22:42;6.00;;;3.17;;
19778;SDS011;10049;59.306;18.090;2022-11-21T00:25:09;6.67;;;3.37;;
19778;SDS011;10049;59.306;18.090;2022-11-21T00:27:38;3.87;;;2.70;;
19778;SDS011;10049;59.306;18.090;2022-11-21T00:30:06;5.37;;;3.30;;
19778;SDS011;10049;59.306;18.090;2022-11-21T00:32:34;6.87;;;3.70;;
19778;SDS011;10049;59.306;18.090;2022-11-21T00:35:01;6.80;;;3.80;;
19778;SDS011;10049;59.306;18.090;2022-11-21T00:37:30;6.27;;;3.63;;
19778;SDS011;10049;59.306;18.090;2022-11-21T00:39:57;9.17;;;4.07;;
19778;SDS011;10049;59.306;18.090;2022-11-21T00:42:25;6.43;;;3.33;;
19778;SDS011;10049;59.306;18.090;2022-11-21T00:44:53;6.03;;;3.30;;
19778;SDS011;10049;59.306;18.090;2022-11-21T00:47:21;4.70;;;2.33;;
19778;SDS011;10049;59.306;18.090;2022-11-21T00:49:48;6.13;;;3.30;;
19778;SDS011;10049;59.306;18.090;2022-11-21T00:52:15;4.47;;;2.57;;
19778;SDS011;10049;59.306;18.090;2022-11-21T00:54:43;4.00;;;2.50;;
19778;SDS011;10049;59.306;18.090;2022-11-21T00:57:10;5.97;;;3.33;;
19778;SDS011;10049;59.306;18.090;2022-11-21T00:59:38;6.30;;;3.50;;
19778;SDS011;10049;59.306;18.090;2022-11-21T01:02:06;5.13;;;3.10;;
19778;SDS011;10049;59.306;18.090;2022-11-21T01:04:34;6.53;;;3.60;;
19778;SDS011;10049;59.306;18.090;2022-11-21T01:07:02;4.33;;;2.97;;
19778;SDS011;10049;59.306;18.090;2022-11-21T01:09:29;4.70;;;3.13;;
19778;SDS011;10049;59.306;18.090;2022-11-21T01:11:56;4.00;;;3.03;;
19778;SDS011;10049;59.306;18.090;2022-11-21T01:14:24;2.43;;;1.30;;
19778;SDS011;10049;59.306;18.090;2022-11-21T01:16:51;4.13;;;2.37;;
19778;SDS011;10049;59.306;18.090;2022-11-21T01:19:20;4.67;;;2.70;;
19778;SDS011;10049;59.306;18.090;2022-11-21T01:21:47;3.33;;;2.70;;
19778;SDS011;10049;59.306;18.090;2022-11-21T01:24:15;4.53;;;2.70;;
19778;SDS011;10049;59.306;18.090;2022-11-21T01:26:42;3.97;;;2.67;;
19778;SDS011;10049;59.306;18.090;2022-11-21T01:29:09;2.97;;;1.77;;
19778;SDS011;10049;59.306;18.090;2022-11-21T01:31:37;3.03;;;1.57;;
19778;SDS011;10049;59.306;18.090;2022-11-21T01:34:04;3.60;;;2.07;;
19778;SDS011;10049;59.306;18.090;2022-11-21T01:36:33;3.10;;;2.10;;
19778;SDS011;10049;59.306;18.090;2022-11-21T01:39:02;3.13;;;2.30;;
19778;SDS011;10049;59.306;18.090;2022-11-21T01:41:30;3.10;;;2.13;;
19778;SDS011;10049;59.306;18.090;2022-11-21T01:43:59;3.43;;;2.37;;
19778;SDS011;10049;59.306;18.090;2022-11-21T01:46:26;2.73;;;1.80;;
19778;SDS011;10049;59.306;18.090;2022-11-21T01:48:54;3.43;;;2.57;;
19778;SDS011;10049;59.306;18.090;2022-11-21T01:51:24;2.80;;;2.17;;
19778;SDS011;10049;59.306;18.090;2022-11-21T01:53:56;2.67;;;2.10;;
19778;SDS011;10049;59.306;18.090;2022-11-21T01:56:24;1.67;;;1.47;;
19778;SDS011;10049;59.306;18.090;2022-11-21T01:58:53;1.03;;;0.93;;
19778;SDS011;10049;59.306;18.090;2022-11-21T02:01:23;1.93;;;1.53;;
19778;SDS011;10049;59.306;18.090;2022-11-21T02:03:50;2.93;;;1.80;;
19778;SDS011;10049;59.306;18.090;2022-11-21T02:06:18;4.60;;;1.87;;
19778;SDS011;10049;59.306;18.090;2022-11-21T02:08:48;2.60;;;1.57;;
19778;SDS011;10049;59.306;18.090;2022-11-21T02:11:20;4.30;;;2.30;;
19778;SDS011;10049;59.306;18.090;2022-11-21T02:13:52;1.80;;;1.43;;
19778;SDS011;10049;59.306;18.090;2022-11-21T02:16:20;2.20;;;1.60;;
19778;SDS011;10049;59.306;18.090;2022-11-21T02:18:49;2.50;;;2.00;;
19778;SDS011;10049;59.306;18.090;2022-11-21T02:21:18;3.80;;;2.37;;
19778;SDS011;10049;59.306;18.090;2022-11-21T02:23:52;4.10;;;2.20;;
19778;SDS011;10049;59.306;18.090;2022-11-21T02:26:26;3.60;;;2.30;;
19778;SDS011;10049;59.306;18.090;2022-11-21T02:28:53;4.77;;;2.60;;
19778;SDS011;10049;59.306;18.090;2022-11-21T02:31:21;3.93;;;2.27;;
19778;SDS011;10049;59.306;18.090;2022-11-21T02:33:49;2.07;;;1.70;;
19778;SDS011;10049;59.306;18.090;2022-11-21T02:39:13;2.00;;;1.60;;
19778;SDS011;10049;59.306;18.090;2022-11-21T02:41:44;3.63;;;1.30;;
19778;SDS011;10049;59.306;18.090;2022-11-21T02:44:17;2.20;;;1.60;;
19778;SDS011;10049;59.306;18.090;2022-11-21T02:46:46;3.90;;;2.30;;
19778;SDS011;10049;59.306;18.090;2022-11-21T02:49:14;5.03;;;2.47;;
19778;SDS011;10049;59.306;18.090;2022-11-21T02:51:42;3.20;;;2.20;;
19778;SDS011;10049;59.306;18.090;2022-11-21T02:54:10;3.63;;;2.50;;
19778;SDS011;10049;59.306;18.090;2022-11-21T02:56:38;3.90;;;2.33;;
19778;SDS011;10049;59.306;18.090;2022-11-21T02:59:06;2.40;;;1.70;;
19778;SDS011;10049;59.306;18.090;2022-11-21T03:01:34;4.23;;;2.67;;
19778;SDS011;10049;59.306;18.090;2022-11-21T03:04:01;1.90;;;1.50;;
19778;SDS011;10049;59.306;18.090;2022-11-21T03:06:28;1.80;;;1.47;;
19778;SDS011;10049;59.306;18.090;2022-11-21T03:08:55;2.97;;;2.07;;
19778;SDS011;10049;59.306;18.090;2022-11-21T03:11:23;3.53;;;2.40;;
19778;SDS011;10049;59.306;18.090;2022-11-21T03:13:50;2.30;;;1.80;;
19778;SDS011;10049;59.306;18.090;2022-11-21T03:16:19;2.80;;;2.00;;
19778;SDS011;10049;59.306;18.090;2022-11-21T03:18:46;1.43;;;1.13;;
19778;SDS011;10049;59.306;18.090;2022-11-21T03:21:13;3.60;;;2.40;;
19778;SDS011;10049;59.306;18.090;2022-11-21T03:23:41;2.17;;;1.30;;
19778;SDS011;10049;59.306;18.090;2022-11-21T03:26:08;2.63;;;1.53;;
19778;SDS011;10049;59.306;18.090;2022-11-21T03:28:35;3.80;;;2.00;;
19778;SDS011;10049;59.306;18.090;2022-11-21T03:31:03;3.53;;;2.23;;
19778;SDS011;10049;59.306;18.090;2022-11-21T03:33:32;4.80;;;1.97;;
19778;SDS011;10049;59.306;18.090;2022-11-21T03:35:59;2.47;;;1.80;;
19778;SDS011;10049;59.306;18.090;2022-11-21T03:38:26;3.13;;;2.17;;
19778;SDS011;10049;59.306;18.090;2022-11-21T03:40:54;4.33;;;2.73;;
19778;SDS011;10049;59.306;18.090;2022-11-21T03:43:21;2.93;;;1.83;;
19778;SDS011;10049;59.306;18.090;2022-11-21T03:45:49;3.50;;;2.03;;
19778;SDS011;10049;59.306;18.090;2022-11-21T03:48:16;3.00;;;1.97;;
19778;SDS011;10049;59.306;18.090;2022-11-21T03:50:45;2.60;;;1.60;;
19778;SDS011;10049;59.306;18.090;2022-11-21T03:53:13;2.93;;;2.00;;
19778;SDS011;10049;59.306;18.090;2022-11-21T03:55:41;2.83;;;2.10;;
19778;SDS011;10049;59.306;18.090;2022-11-21T03:58:08;5.40;;;2.63;;
19778;SDS011;10049;59.306;18.090;2022-11-21T04:00:36;4.20;;;2.53;;
19778;SDS011;10049;59.306;18.090;2022-11-21T04:03:03;3.70;;;2.40;;
19778;SDS011;10049;59.306;18.090;2022-11-21T04:05:31;3.13;;;2.07;;
19778;SDS011;10049;59.306;18.090;2022-11-21T04:08:02;2.47;;;1.63;;
19778;SDS011;10049;59.306;18.090;2022-11-21T04:10:29;3.37;;;2.37;;
19778;SDS011;10049;59.306;18.090;2022-11-21T04:12:57;2.63;;;2.07;;
19778;SDS011;10049;59.306;18.090;2022-11-21T04:15:24;3.23;;;2.03;;
19778;SDS011;10049;59.306;18.090;2022-11-21T04:17:52;2.83;;;1.97;;
19778;SDS011;10049;59.306;18.090;2022-11-21T04:20:19;3.13;;;1.80;;
19778;SDS011;10049;59.306;18.090;2022-11-21T04:22:47;4.43;;;2.23;;
19778;SDS011;10049;59.306;18.090;2022-11-21T04:25:16;2.00;;;1.20;;
19778;SDS011;10049;59.306;18.090;2022-11-21T04:27:43;2.93;;;1.90;;
19778;SDS011;10049;59.306;18.090;2022-11-21T04:30:11;1.90;;;1.50;;
19778;SDS011;10049;59.306;18.090;2022-11-21T04:32:39;3.70;;;1.73;;
19778;SDS011;10049;59.306;18.090;2022-11-21T04:35:09;2.87;;;1.60;;
19778;SDS011;10049;59.306;18.090;2022-11-21T04:37:37;2.50;;;1.60;;
19778;SDS011;10049;59.306;18.090;2022-11-21T04:40:05;2.67;;;1.80;;
19778;SDS011;10049;59.306;18.090;2022-11-21T04:42:34;2.83;;;1.83;;
19778;SDS011;10049;59.306;18.090;2022-11-21T04:45:02;3.73;;;1.73;;
19778;SDS011;10049;59.306;18.090;2022-11-21T04:47:30;1.27;;;0.90;;
19778;SDS011;10049;59.306;18.090;2022-11-21T04:49:58;2.93;;;1.73;;
19778;SDS011;10049;59.306;18.090;2022-11-21T04:52:26;3.03;;;1.80;;
19778;SDS011;10049;59.306;18.090;2022-11-21T04:54:53;2.17;;;1.70;;
19778;SDS011;10049;59.306;18.090;2022-11-21T04:57:21;3.00;;;1.80;;
19778;SDS011;10049;59.306;18.090;2022-11-21T04:59:50;1.30;;;1.20;;
19778;SDS011;10049;59.306;18.090;2022-11-21T05:02:18;1.93;;;1.07;;
19778;SDS011;10049;59.306;18.090;2022-11-21T05:04:45;1.30;;;1.03;;
19778;SDS011;10049;59.306;18.090;2022-11-21T05:07:12;2.03;;;1.30;;
19778;SDS011;10049;59.306;18.090;2022-11-21T05:09:40;1.60;;;1.20;;
19778;SDS011;10049;59.306;18.090;2022-11-21T05:12:08;1.60;;;1.33;;
19778;SDS011;10049;59.306;18.090;2022-11-21T05:14:54;3.10;;;1.80;;
19778;SDS011;10049;59.306;18.090;2022-11-21T05:17:21;2.80;;;2.00;;
19778;SDS011;10049;59.306;18.090;2022-11-21T05:19:49;3.03;;;1.90;;
19778;SDS011;10049;59.306;18.090;2022-11-21T05:22:17;2.67;;;2.00;;
19778;SDS011;10049;59.306;18.090;2022-11-21T05:24:44;2.43;;;1.70;;
19778;SDS011;10049;59.306;18.090;2022-11-21T05:27:12;2.53;;;1.80;;
19778;SDS011;10049;59.306;18.090;2022-11-21T05:29:39;2.43;;;1.80;;
19778;SDS011;10049;59.306;18.090;2022-11-21T05:32:09;3.90;;;2.40;;
19778;SDS011;10049;59.306;18.090;2022-11-21T05:34:37;4.83;;;2.10;;
19778;SDS011;10049;59.306;18.090;2022-11-21T05:37:06;3.03;;;2.47;;
19778;SDS011;10049;59.306;18.090;2022-11-21T05:39:33;3.90;;;2.40;;
19778;SDS011;10049;59.306;18.090;2022-11-21T05:42:01;3.93;;;2.23;;
19778;SDS011;10049;59.306;18.090;2022-11-21T05:44:29;3.70;;;2.33;;
19778;SDS011;10049;59.306;18.090;2022-11-21T05:46:55;3.67;;;2.27;;
19778;SDS011;10049;59.306;18.090;2022-11-21T05:49:27;3.27;;;2.27;;
19778;SDS011;10049;59.306;18.090;2022-11-21T05:51:55;3.13;;;1.90;;
19778;SDS011;10049;59.306;18.090;2022-11-21T05:54:22;4.00;;;2.13;;
19778;SDS011;10049;59.306;18.090;2022-11-21T05:56:50;1.93;;;1.10;;
19778;SDS011;10049;59.306;18.090;2022-11-21T05:59:17;3.63;;;2.47;;
19778;SDS011;10049;59.306;18.090;2022-11-21T06:01:45;4.80;;;2.60;;
19778;SDS011;10049;59.306;18.090;2022-11-21T06:04:31;3.67;;;2.50;;
19778;SDS011;10049;59.306;18.090;2022-11-21T06:06:59;3.50;;;2.63;;
19778;SDS011;10049;59.306;18.090;2022-11-21T06:09:26;4.83;;;2.67;;
19778;SDS011;10049;59.306;18.090;2022-11-21T06:11:54;3.17;;;2.43;;
19778;SDS011;10049;59.306;18.090;2022-11-21T06:14:22;3.87;;;2.23;;
19778;SDS011;10049;59.306;18.090;2022-11-21T06:16:49;3.47;;;2.10;;
19778;SDS011;10049;59.306;18.090;2022-11-21T06:19:17;3.57;;;2.60;;
19778;SDS011;10049;59.306;18.090;2022-11-21T06:21:46;5.27;;;2.70;;
19778;SDS011;10049;59.306;18.090;2022-11-21T06:24:14;3.10;;;2.50;;
19778;SDS011;10049;59.306;18.090;2022-11-21T06:26:42;2.80;;;2.07;;
19778;SDS011;10049;59.306;18.090;2022-11-21T06:29:10;3.53;;;2.67;;
19778;SDS011;10049;59.306;18.090;2022-11-21T06:31:37;3.50;;;2.40;;
19778;SDS011;10049;59.306;18.090;2022-11-21T06:34:05;5.13;;;2.90;;
19778;SDS011;10049;59.306;18.090;2022-11-21T06:36:35;3.80;;;2.40;;
19778;SDS011;10049;59.306;18.090;2022-11-21T06:39:04;3.07;;;2.23;;
19778;SDS011;10049;59.306;18.090;2022-11-21T06:41:32;2.43;;;1.87;;
19778;SDS011;10049;59.306;18.090;2022-11-21T06:44:02;3.40;;;2.20;;
19778;SDS011;10049;59.306;18.090;2022-11-21T06:46:31;4.57;;;2.40;;
19778;SDS011;10049;59.306;18.090;2022-11-21T06:48:58;5.87;;;2.27;;
19778;SDS011;10049;59.306;18.090;2022-11-21T06:51:26;5.53;;;2.03;;
19778;SDS011;10049;59.306;18.090;2022-11-21T06:53:54;2.73;;;1.97;;
19778;SDS011;10049;59.306;18.090;2022-11-21T06:56:24;2.60;;;1.63;;
19778;SDS011;10049;59.306;18.090;2022-11-21T06:58:52;2.10;;;1.77;;
19778;SDS011;10049;59.306;18.090;2022-11-21T07:01:20;3.43;;;1.90;;
19778;SDS011;10049;59.306;18.090;2022-11-21T07:03:48;3.50;;;2.07;;
19778;SDS011;10049;59.306;18.090;2022-11-21T07:06:18;2.70;;;1.83;;
19778;SDS011;10049;59.306;18.090;2022-11-21T07:08:46;2.27;;;1.50;;
19778;SDS011;10049;59.306;18.090;2022-11-21T07:11:13;2.20;;;1.70;;
19778;SDS011;10049;59.306;18.090;2022-11-21T07:13:43;2.13;;;1.53;;
19778;SDS011;10049;59.306;18.090;2022-11-21T07:16:11;1.53;;;1.17;;
19778;SDS011;10049;59.306;18.090;2022-11-21T07:18:39;1.77;;;1.40;;
19778;SDS011;10049;59.306;18.090;2022-11-21T07:21:07;1.73;;;1.30;;
19778;SDS011;10049;59.306;18.090;2022-11-21T07:23:35;1.70;;;1.37;;
19778;SDS011;10049;59.306;18.090;2022-11-21T07:26:03;2.27;;;1.33;;
19778;SDS011;10049;59.306;18.090;2022-11-21T07:28:32;1.90;;;1.20;;
19778;SDS011;10049;59.306;18.090;2022-11-21T07:31:01;1.97;;;1.20;;
19778;SDS011;10049;59.306;18.090;2022-11-21T07:33:31;1.70;;;1.40;;
19778;SDS011;10049;59.306;18.090;2022-11-21T07:35:58;1.83;;;1.20;;
19778;SDS011;10049;59.306;18.090;2022-11-21T07:38:27;1.70;;;1.00;;
19778;SDS011;10049;59.306;18.090;2022-11-21T07:40:54;2.20;;;1.33;;
19778;SDS011;10049;59.306;18.090;2022-11-21T07:43:24;3.13;;;1.10;;
19778;SDS011;10049;59.306;18.090;2022-11-21T07:45:51;1.57;;;1.20;;
19778;SDS011;10049;59.306;18.090;2022-11-21T07:48:20;1.87;;;1.00;;
19778;SDS011;10049;59.306;18.090;2022-11-21T07:50:49;1.50;;;1.17;;
19778;SDS011;10049;59.306;18.090;2022-11-21T07:53:18;1.30;;;1.00;;
19778;SDS011;10049;59.306;18.090;2022-11-21T07:55:46;1.10;;;1.00;;
19778;SDS011;10049;59.306;18.090;2022-11-21T07:58:15;2.93;;;1.20;;
19778;SDS011;10049;59.306;18.090;2022-11-21T08:00:42;0.93;;;0.70;;
19778;SDS011;10049;59.306;18.090;2022-11-21T08:03:10;0.60;;;0.60;;
19778;SDS011;10049;59.306;18.090;2022-11-21T08:05:40;1.20;;;1.00;;
19778;SDS011;10049;59.306;18.090;2022-11-21T08:08:08;0.73;;;0.60;;
19778;SDS011;10049;59.306;18.090;2022-11-21T08:10:36;0.73;;;0.67;;
19778;SDS011;10049;59.306;18.090;2022-11-21T08:13:04;1.27;;;0.57;;
19778;SDS011;10049;59.306;18.090;2022-11-21T08:15:32;0.80;;;0.70;;
19778;SDS011;10049;59.306;18.090;2022-11-21T08:18:05;0.80;;;0.60;;
19778;SDS011;10049;59.306;18.090;2022-11-21T08:20:33;0.50;;;0.50;;
19778;SDS011;10049;59.306;18.090;2022-11-21T08:23:02;3.47;;;0.80;;
19778;SDS011;10049;59.306;18.090;2022-11-21T08:25:30;0.87;;;0.60;;
19778;SDS011;10049;59.306;18.090;2022-11-21T08:27:58;3.50;;;0.90;;
19778;SDS011;10049;59.306;18.090;2022-11-21T08:30:26;0.70;;;0.60;;
19778;SDS011;10049;59.306;18.090;2022-11-21T08:32:54;0.83;;;0.70;;
19778;SDS011;10049;59.306;18.090;2022-11-21T08:35:23;1.30;;;0.90;;
19778;SDS011;10049;59.306;18.090;2022-11-21T08:37:53;2.20;;;0.87;;
19778;SDS011;10049;59.306;18.090;2022-11-21T08:40:23;0.60;;;0.57;;
19778;SDS011;10049;59.306;18.090;2022-11-21T08:42:54;0.73;;;0.70;;
19778;SDS011;10049;59.306;18.090;2022-11-21T08:45:22;2.33;;;0.70;;
19778;SDS011;10049;59.306;18.090;2022-11-21T08:47:50;1.10;;;0.80;;
19778;SDS011;10049;59.306;18.090;2022-11-21T08:50:17;1.40;;;0.80;;
19778;SDS011;10049;59.306;18.090;2022-11-21T08:52:44;0.50;;;0.50;;
19778;SDS011;10049;59.306;18.090;2022-11-21T08:55:12;1.23;;;0.50;;
19778;SDS011;10049;59.306;18.090;2022-11-21T08:57:41;0.53;;;0.53;;
19778;SDS011;10049;59.306;18.090;2022-11-21T09:00:10;0.50;;;0.50;;
19778;SDS011;10049;59.306;18.090;2022-11-21T09:02:37;1.50;;;0.60;;
19778;SDS011;10049;59.306;18.090;2022-11-21T09:05:05;1.20;;;0.87;;
19778;SDS011;10049;59.306;18.090;2022-11-21T09:07:33;0.57;;;0.50;;
19778;SDS011;10049;59.306;18.090;2022-11-21T09:10:00;0.97;;;0.80;;
19778;SDS011;10049;59.306;18.090;2022-11-21T09:12:28;0.50;;;0.50;;
19778;SDS011;10049;59.306;18.090;2022-11-21T09:14:57;4.60;;;0.80;;
19778;SDS011;10049;59.306;18.090;2022-11-21T09:17:42;1.40;;;1.20;;
19778;SDS011;10049;59.306;18.090;2022-11-21T09:20:27;2.13;;;1.37;;
19778;SDS011;10049;59.306;18.090;2022-11-21T09:22:54;1.50;;;1.30;;
19778;SDS011;10049;59.306;18.090;2022-11-21T09:25:22;1.43;;;1.30;;
19778;SDS011;10049;59.306;18.090;2022-11-21T09:27:50;1.63;;;1.17;;
19778;SDS011;10049;59.306;18.090;2022-11-21T09:30:20;2.00;;;1.70;;
19778;SDS011;10049;59.306;18.090;2022-11-21T09:32:47;1.67;;;1.50;;
19778;SDS011;10049;59.306;18.090;2022-11-21T09:35:15;1.63;;;1.07;;
19778;SDS011;10049;59.306;18.090;2022-11-21T09:37:42;1.77;;;1.37;;
19778;SDS011;10049;59.306;18.090;2022-11-21T09:40:11;3.40;;;1.93;;
19778;SDS011;10049;59.306;18.090;2022-11-21T09:42:49;3.53;;;2.00;;
19778;SDS011;10049;59.306;18.090;2022-11-21T09:45:20;3.40;;;1.90;;
19778;SDS011;10049;59.306;18.090;2022-11-21T09:47:49;3.13;;;1.73;;
19778;SDS011;10049;59.306;18.090;2022-11-21T09:50:25;1.97;;;1.60;;
19778;SDS011;10049;59.306;18.090;2022-11-21T09:52:55;2.17;;;1.60;;
19778;SDS011;10049;59.306;18.090;2022-11-21T09:55:27;2.33;;;1.23;;
19778;SDS011;10049;59.306;18.090;2022-11-21T09:57:55;1.50;;;1.40;;
19778;SDS011;10049;59.306;18.090;2022-11-21T10:00:26;1.23;;;1.03;;
19778;SDS011;10049;59.306;18.090;2022-11-21T10:02:54;1.80;;;1.40;;
19778;SDS011;10049;59.306;18.090;2022-11-21T10:05:24;3.80;;;1.50;;
19778;SDS011;10049;59.306;18.090;2022-11-21T10:07:54;1.80;;;1.27;;
19778;SDS011;10049;59.306;18.090;2022-11-21T10:10:29;1.57;;;1.00;;
19778;SDS011;10049;59.306;18.090;2022-11-21T10:13:05;1.73;;;1.17;;
19778;SDS011;10049;59.306;18.090;2022-11-21T10:15:49;1.40;;;1.03;;
19778;SDS011;10049;59.306;18.090;2022-11-21T10:18:28;3.63;;;1.03;;
19778;SDS011;10049;59.306;18.090;2022-11-21T10:20:59;1.70;;;1.40;;
19778;SDS011;10049;59.306;18.090;2022-11-21T10:23:47;1.80;;;1.10;;
19778;SDS011;10049;59.306;18.090;2022-11-21T10:26:42;1.83;;;0.87;;
19778;SDS011;10049;59.306;18.090;2022-11-21T10:29:13;2.13;;;1.10;;
19778;SDS011;10049;59.306;18.090;2022-11-21T10:31:46;1.87;;;1.20;;
19778;SDS011;10049;59.306;18.090;2022-11-21T10:34:17;2.17;;;1.00;;
19778;SDS011;10049;59.306;18.090;2022-11-21T10:36:46;1.50;;;1.07;;
19778;SDS011;10049;59.306;18.090;2022-11-21T10:39:17;1.17;;;0.90;;
19778;SDS011;10049;59.306;18.090;2022-11-21T10:41:50;0.87;;;0.73;;
19778;SDS011;10049;59.306;18.090;2022-11-21T10:44:22;2.10;;;1.27;;
19778;SDS011;10049;59.306;18.090;2022-11-21T10:47:14;0.73;;;0.60;;
19778;SDS011;10049;59.306;18.090;2022-11-21T10:49:51;1.03;;;0.93;;
19778;SDS011;10049;59.306;18.090;2022-11-21T10:52:20;1.70;;;1.07;;
19778;SDS011;10049;59.306;18.090;2022-11-21T10:55:05;1.20;;;1.10;;
19778;SDS011;10049;59.306;18.090;2022-11-21T10:57:35;1.43;;;1.10;;
19778;SDS011;10049;59.306;18.090;2022-11-21T11:00:12;1.37;;;0.90;;
19778;SDS011;10049;59.306;18.090;2022-11-21T11:02:43;4.67;;;1.10;;
19778;SDS011;10049;59.306;18.090;2022-11-21T11:05:26;1.30;;;1.00;;
19778;SDS011;10049;59.306;18.090;2022-11-21T11:07:58;2.43;;;0.93;;
19778;SDS011;10049;59.306;18.090;2022-11-21T11:10:25;1.83;;;1.27;;
19778;SDS011;10049;59.306;18.090;2022-11-21T11:12:53;1.03;;;0.80;;
19778;SDS011;10049;59.306;18.090;2022-11-21T11:15:38;1.47;;;1.07;;
19778;SDS011;10049;59.306;18.090;2022-11-21T11:18:19;1.53;;;1.10;;
19778;SDS011;10049;59.306;18.090;2022-11-21T11:20:49;3.10;;;0.90;;
19778;SDS011;10049;59.306;18.090;2022-11-21T11:23:25;1.07;;;0.70;;
19778;SDS011;10049;59.306;18.090;2022-11-21T11:25:53;0.53;;;0.50;;
19778;SDS011;10049;59.306;18.090;2022-11-21T11:28:21;3.37;;;1.10;;
19778;SDS011;10049;59.306;18.090;2022-11-21T11:30:50;1.20;;;1.10;;
19778;SDS011;10049;59.306;18.090;2022-11-21T11:33:32;1.70;;;0.90;;
19778;SDS011;10049;59.306;18.090;2022-11-21T11:38:47;1.77;;;0.87;;
19778;SDS011;10049;59.306;18.090;2022-11-21T11:41:23;0.77;;;0.70;;
19778;SDS011;10049;59.306;18.090;2022-11-21T11:43:55;1.20;;;0.97;;
19778;SDS011;10049;59.306;18.090;2022-11-21T11:46:43;1.27;;;0.90;;
19778;SDS011;10049;59.306;18.090;2022-11-21T11:49:31;1.20;;;0.67;;
19778;SDS011;10049;59.306;18.090;2022-11-21T11:52:24;1.57;;;0.90;;
19778;SDS011;10049;59.306;18.090;2022-11-21T11:54:54;1.00;;;0.70;;
19778;SDS011;10049;59.306;18.090;2022-11-21T11:57:25;1.33;;;0.93;;
19778;SDS011;10049;59.306;18.090;2022-11-21T11:59:58;1.13;;;1.00;;
19778;SDS011;10049;59.306;18.090;2022-11-21T12:02:32;1.70;;;1.30;;
19778;SDS011;10049;59.306;18.090;2022-11-21T12:05:10;1.40;;;1.10;;
19778;SDS011;10049;59.306;18.090;2022-11-21T12:07:39;1.23;;;1.13;;
19778;SDS011;10049;59.306;18.090;2022-11-21T12:10:11;1.57;;;1.20;;
19778;SDS011;10049;59.306;18.090;2022-11-21T12:12:42;2.07;;;1.30;;
19778;SDS011;10049;59.306;18.090;2022-11-21T12:15:13;4.13;;;1.50;;
19778;SDS011;10049;59.306;18.090;2022-11-21T12:18:03;2.47;;;1.10;;
19778;SDS011;10049;59.306;18.090;2022-11-21T12:20:37;1.73;;;1.30;;
19778;SDS011;10049;59.306;18.090;2022-11-21T12:23:06;1.70;;;1.07;;
19778;SDS011;10049;59.306;18.090;2022-11-21T12:25:35;2.00;;;0.73;;
19778;SDS011;10049;59.306;18.090;2022-11-21T12:28:03;1.40;;;1.10;;
19778;SDS011;10049;59.306;18.090;2022-11-21T12:30:46;1.53;;;1.07;;
19778;SDS011;10049;59.306;18.090;2022-11-21T12:33:18;0.90;;;0.90;;
19778;SDS011;10049;59.306;18.090;2022-11-21T12:36:06;1.97;;;0.67;;
19778;SDS011;10049;59.306;18.090;2022-11-21T12:38:51;1.73;;;1.00;;
19778;SDS011;10049;59.306;18.090;2022-11-21T12:41:22;1.43;;;1.20;;
19778;SDS011;10049;59.306;18.090;2022-11-21T12:44:12;2.03;;;1.07;;
19778;SDS011;10049;59.306;18.090;2022-11-21T12:46:47;1.00;;;0.87;;
19778;SDS011;10049;59.306;18.090;2022-11-21T12:49:19;0.80;;;0.80;;
19778;SDS011;10049;59.306;18.090;2022-11-21T12:52:12;1.47;;;1.10;;
19778;SDS011;10049;59.306;18.090;2022-11-21T12:55:03;2.77;;;1.10;;
19778;SDS011;10049;59.306;18.090;2022-11-21T12:57:39;1.60;;;1.00;;
19778;SDS011;10049;59.306;18.090;2022-11-21T13:00:11;1.17;;;1.00;;
19778;SDS011;10049;59.306;18.090;2022-11-21T13:02:46;1.43;;;1.00;;
19778;SDS011;10049;59.306;18.090;2022-11-21T13:05:17;2.20;;;0.90;;
19778;SDS011;10049;59.306;18.090;2022-11-21T13:07:49;0.77;;;0.77;;
19778;SDS011;10049;59.306;18.090;2022-11-21T13:10:19;1.37;;;0.63;;
19778;SDS011;10049;59.306;18.090;2022-11-21T13:12:47;0.97;;;0.87;;
19778;SDS011;10049;59.306;18.090;2022-11-21T13:15:20;0.80;;;0.80;;
19778;SDS011;10049;59.306;18.090;2022-11-21T13:17:49;0.90;;;0.80;;
19778;SDS011;10049;59.306;18.090;2022-11-21T13:20:22;2.23;;;0.80;;
19778;SDS011;10049;59.306;18.090;2022-11-21T13:22:56;1.97;;;0.90;;
19778;SDS011;10049;59.306;18.090;2022-11-21T13:25:40;1.00;;;0.50;;
19778;SDS011;10049;59.306;18.090;2022-11-21T13:28:28;0.83;;;0.80;;
19778;SDS011;10049;59.306;18.090;2022-11-21T13:30:56;0.87;;;0.53;;
19778;SDS011;10049;59.306;18.090;2022-11-21T13:36:36;0.70;;;0.70;;
19778;SDS011;10049;59.306;18.090;2022-11-21T13:42:09;0.63;;;0.63;;
19778;SDS011;10049;59.306;18.090;2022-11-21T13:44:55;1.03;;;0.80;;
19778;SDS011;10049;59.306;18.090;2022-11-21T13:50:16;0.90;;;0.90;;
19778;SDS011;10049;59.306;18.090;2022-11-21T13:52:48;1.40;;;1.30;;
19778;SDS011;10049;59.306;18.090;2022-11-21T13:55:33;1.20;;;1.10;;
19778;SDS011;10049;59.306;18.090;2022-11-21T13:58:11;0.53;;;0.53;;
19778;SDS011;10049;59.306;18.090;2022-11-21T14:00:50;1.77;;;0.80;;
19778;SDS011;10049;59.306;18.090;2022-11-21T14:06:11;0.90;;;0.77;;
19778;SDS011;10049;59.306;18.090;2022-11-21T14:11:46;0.80;;;0.80;;
19778;SDS011;10049;59.306;18.090;2022-11-21T14:14:32;0.80;;;0.70;;
19778;SDS011;10049;59.306;18.090;2022-11-21T14:20:14;1.13;;;0.43;;
19778;SDS011;10049;59.306;18.090;2022-11-21T14:22:43;0.40;;;0.40;;
19778;SDS011;10049;59.306;18.090;2022-11-21T14:25:17;0.53;;;0.53;;
19778;SDS011;10049;59.306;18.090;2022-11-21T14:27:46;1.40;;;0.90;;
19778;SDS011;10049;59.306;18.090;2022-11-21T14:30:34;0.60;;;0.60;;
19778;SDS011;10049;59.306;18.090;2022-11-21T14:35:48;0.47;;;0.47;;
19778;SDS011;10049;59.306;18.090;2022-11-21T14:38:18;2.17;;;1.40;;
19778;SDS011;10049;59.306;18.090;2022-11-21T14:40:46;1.33;;;0.77;;
19778;SDS011;10049;59.306;18.090;2022-11-21T14:43:25;3.50;;;1.27;;
19778;SDS011;10049;59.306;18.090;2022-11-21T14:45:56;1.83;;;1.23;;
19778;SDS011;10049;59.306;18.090;2022-11-21T14:48:24;1.53;;;1.10;;
19778;SDS011;10049;59.306;18.090;2022-11-21T14:50:52;1.63;;;1.33;;
19778;SDS011;10049;59.306;18.090;2022-11-21T14:53:20;1.50;;;1.00;;
19778;SDS011;10049;59.306;18.090;2022-11-21T14:55:50;0.60;;;0.60;;
19778;SDS011;10049;59.306;18.090;2022-11-21T14:58:18;1.27;;;0.97;;
19778;SDS011;10049;59.306;18.090;2022-11-21T15:01:03;0.60;;;0.60;;
19778;SDS011;10049;59.306;18.090;2022-11-21T15:03:31;1.00;;;0.90;;
19778;SDS011;10049;59.306;18.090;2022-11-21T15:05:59;1.30;;;0.90;;
19778;SDS011;10049;59.306;18.090;2022-11-21T15:08:27;0.67;;;0.67;;
19778;SDS011;10049;59.306;18.090;2022-11-21T15:10:55;4.10;;;0.80;;
19778;SDS011;10049;59.306;18.090;2022-11-21T15:13:24;0.53;;;0.50;;
19778;SDS011;10049;59.306;18.090;2022-11-21T15:15:52;0.93;;;0.70;;
19778;SDS011;10049;59.306;18.090;2022-11-21T15:18:23;0.80;;;0.80;;